createdAt,value
2024-01-24T00:00:56.962Z,2.90
2024-01-24T00:03:27.730Z,3.58
2024-01-24T00:06:00.853Z,2.83
2024-01-24T00:08:31.642Z,4.10
2024-01-24T00:11:02.975Z,2.67
2024-01-24T00:13:33.910Z,2.58
2024-01-24T00:16:05.540Z,3.38
2024-01-24T00:18:36.309Z,3.38
2024-01-24T00:21:09.827Z,3.80
2024-01-24T00:23:40.331Z,3.92
2024-01-24T00:26:10.825Z,2.63
2024-01-24T00:28:41.609Z,2.78
2024-01-24T00:31:12.350Z,4.25
2024-01-24T00:33:43.293Z,3.38
2024-01-24T00:36:16.510Z,2.78
2024-01-24T00:38:47.003Z,3.00
2024-01-24T00:41:18.020Z,4.55
2024-01-24T00:43:48.518Z,2.47
2024-01-24T00:46:19.251Z,2.92
2024-01-24T00:48:50.803Z,3.03
2024-01-24T00:51:24.207Z,2.10
2024-01-24T00:53:55.982Z,2.22
2024-01-24T00:56:26.489Z,4.47
2024-01-24T00:58:57.141Z,2.80
2024-01-24T01:01:28.293Z,2.40
2024-01-24T01:03:59.117Z,2.80
2024-01-24T01:06:32.395Z,3.25
2024-01-24T01:09:04.289Z,3.42
2024-01-24T01:11:34.783Z,4.30
2024-01-24T01:14:05.340Z,2.70
2024-01-24T01:16:35.850Z,3.13
2024-01-24T01:19:06.550Z,2.00
2024-01-24T01:21:41.869Z,4.47
2024-01-24T01:24:12.863Z,2.35
2024-01-24T01:26:44.928Z,2.05
2024-01-24T01:29:15.729Z,2.83
2024-01-24T01:31:46.187Z,6.22
2024-01-24T01:34:17.015Z,2.33
2024-01-24T01:36:50.352Z,2.80
2024-01-24T01:39:20.958Z,3.15
2024-01-24T01:41:51.456Z,3.58
2024-01-24T01:44:22.781Z,3.22
2024-01-24T01:46:53.738Z,2.08
2024-01-24T01:49:25.650Z,3.35
2024-01-24T01:51:58.838Z,3.22
2024-01-24T01:54:29.569Z,2.33
2024-01-24T01:57:00.159Z,4.13
2024-01-24T01:59:30.942Z,2.90
2024-01-24T02:02:01.916Z,2.47
2024-01-24T02:04:32.924Z,3.05
2024-01-24T02:07:06.264Z,3.38
2024-01-24T02:09:37.206Z,3.45
2024-01-24T02:12:08.089Z,2.80
2024-01-24T02:14:38.598Z,2.47
2024-01-24T02:17:09.722Z,2.20
2024-01-24T02:19:40.177Z,2.33
2024-01-24T02:22:13.392Z,3.08
2024-01-24T02:24:46.673Z,4.78
2024-01-24T02:27:17.482Z,1.88
2024-01-24T02:29:48.278Z,2.38
2024-01-24T02:32:18.771Z,1.40
2024-01-24T02:34:49.302Z,2.33
2024-01-24T02:37:21.247Z,1.92
2024-01-24T02:39:54.579Z,2.63
2024-01-24T02:42:25.149Z,2.03
2024-01-24T02:44:55.822Z,2.55
2024-01-24T02:47:26.412Z,1.77
2024-01-24T02:49:58.555Z,1.90
2024-01-24T02:52:29.035Z,2.10
2024-01-24T02:55:02.104Z,2.03
2024-01-24T02:57:32.623Z,2.72
2024-01-24T03:00:03.761Z,2.80
2024-01-24T03:02:34.243Z,1.73
2024-01-24T03:05:07.168Z,3.63
2024-01-24T03:07:37.820Z,1.35
2024-01-24T03:10:13.285Z,3.28
2024-01-24T03:12:44.366Z,2.55
2024-01-24T03:15:15.146Z,1.73
2024-01-24T03:17:46.383Z,1.98
2024-01-24T03:20:18.433Z,1.80
2024-01-24T03:22:49.023Z,1.98
2024-01-24T03:25:22.445Z,4.45
2024-01-24T03:27:53.113Z,1.85
2024-01-24T03:30:23.751Z,2.30
2024-01-24T03:32:54.412Z,1.80
2024-01-24T03:35:24.987Z,1.10
2024-01-24T03:37:55.461Z,2.78
2024-01-24T03:40:28.640Z,1.30
2024-01-24T03:42:59.522Z,1.42
2024-01-24T03:45:30.445Z,1.65
2024-01-24T03:48:01.890Z,2.83
2024-01-24T03:50:32.509Z,1.88
2024-01-24T03:53:03.183Z,2.05
2024-01-24T03:55:36.342Z,1.23
2024-01-24T03:58:07.039Z,1.90
2024-01-24T04:00:37.864Z,1.63
2024-01-24T04:03:09.366Z,3.20
2024-01-24T04:05:40.229Z,2.25
2024-01-24T04:08:10.888Z,1.20
2024-01-24T04:10:44.032Z,2.47
2024-01-24T04:13:14.620Z,1.67
2024-01-24T04:15:45.632Z,2.08
2024-01-24T04:18:16.665Z,1.80
2024-01-24T04:20:47.377Z,1.70
2024-01-24T04:23:17.919Z,1.88
2024-01-24T04:25:51.547Z,1.13
2024-01-24T04:28:22.080Z,0.93
2024-01-24T04:30:52.813Z,2.40
2024-01-24T04:33:23.436Z,1.77
2024-01-24T04:35:54.133Z,1.55
2024-01-24T04:38:25.434Z,1.40
2024-01-24T04:40:58.575Z,3.15
2024-01-24T04:43:29.288Z,1.58
2024-01-24T04:45:59.856Z,1.90
2024-01-24T04:48:31.022Z,1.02
2024-01-24T04:51:01.646Z,2.38
2024-01-24T04:53:32.205Z,2.00
2024-01-24T04:56:05.344Z,2.53
2024-01-24T04:58:36.029Z,1.40
2024-01-24T05:01:06.985Z,2.42
2024-01-24T05:03:38.186Z,1.35
2024-01-24T05:06:11.091Z,1.10
2024-01-24T05:08:42.395Z,2.28
2024-01-24T05:11:15.580Z,2.42
2024-01-24T05:13:46.074Z,2.95
2024-01-24T05:16:16.624Z,1.70
2024-01-24T05:18:47.559Z,1.48
2024-01-24T05:21:18.159Z,1.63
2024-01-24T05:23:49.450Z,2.58
2024-01-24T05:26:24.205Z,2.15
2024-01-24T05:28:54.731Z,1.35
2024-01-24T05:31:25.475Z,1.70
2024-01-24T05:33:57.102Z,1.80
2024-01-24T05:36:27.794Z,2.38
2024-01-24T05:38:58.303Z,1.00
2024-01-24T05:41:31.463Z,1.13
2024-01-24T05:44:01.994Z,1.35
2024-01-24T05:46:32.448Z,1.73
2024-01-24T05:49:03.435Z,1.10
2024-01-24T05:51:34.158Z,2.40
2024-01-24T05:54:05.677Z,2.58
2024-01-24T05:56:39.742Z,3.42
2024-01-24T05:59:13.811Z,1.95
2024-01-24T06:01:45.946Z,1.83
2024-01-24T06:04:16.854Z,2.92
2024-01-24T06:06:47.613Z,1.67
2024-01-24T06:09:20.303Z,2.15
2024-01-24T06:11:53.508Z,1.20
2024-01-24T06:14:24.191Z,1.83
2024-01-24T06:16:54.674Z,2.03
2024-01-24T06:19:25.505Z,1.83
2024-01-24T06:21:56.150Z,2.08
2024-01-24T06:24:26.849Z,2.58
2024-01-24T06:27:00.216Z,2.83
2024-01-24T06:30:15.561Z,2.55
2024-01-24T06:32:21.675Z,6.70
2024-01-24T06:34:52.270Z,6.13
2024-01-24T06:37:22.795Z,8.45
2024-01-24T06:39:53.455Z,5.88
2024-01-24T06:42:26.833Z,5.07
2024-01-24T06:44:57.506Z,8.65
2024-01-24T06:47:28.165Z,8.30
2024-01-24T06:49:58.808Z,9.50
2024-01-24T06:52:30.113Z,6.25
2024-01-24T06:55:00.691Z,6.68
2024-01-24T06:57:33.890Z,6.93
2024-01-24T07:00:06.260Z,9.13
2024-01-24T07:02:37.792Z,6.43
2024-01-24T07:05:08.905Z,7.30
2024-01-24T07:07:41.740Z,8.55
2024-01-24T07:10:13.881Z,4.80
2024-01-24T07:12:49.033Z,10.48
2024-01-24T07:15:20.565Z,9.75
2024-01-24T07:17:51.180Z,7.07
2024-01-24T07:20:21.855Z,4.03
2024-01-24T07:22:52.826Z,16.13
2024-01-24T07:25:24.383Z,6.13
2024-01-24T07:27:57.799Z,6.30
2024-01-24T07:30:28.498Z,5.30
2024-01-24T07:32:59.053Z,5.90
2024-01-24T07:35:29.724Z,9.13
2024-01-24T07:38:00.195Z,7.63
2024-01-24T07:40:30.841Z,3.47
2024-01-24T07:43:04.114Z,8.30
2024-01-24T07:45:34.851Z,5.55
2024-01-24T07:48:06.274Z,5.43
2024-01-24T07:50:39.014Z,5.50
2024-01-24T07:53:09.678Z,6.22
2024-01-24T07:55:51.354Z,4.28
2024-01-24T07:58:29.697Z,6.03
2024-01-24T08:01:00.560Z,4.07
2024-01-24T08:03:31.256Z,7.13
2024-01-24T08:06:01.835Z,6.50
2024-01-24T08:08:32.510Z,7.30
2024-01-24T08:11:03.241Z,8.68
2024-01-24T08:13:37.025Z,4.13
2024-01-24T08:16:09.226Z,8.75
2024-01-24T08:18:40.025Z,5.95
2024-01-24T08:21:10.786Z,6.75
2024-01-24T08:23:48.815Z,7.40
2024-01-24T08:26:22.264Z,8.70
2024-01-24T08:28:55.779Z,6.43
2024-01-24T08:31:26.844Z,9.25
2024-01-24T08:33:57.535Z,8.90
2024-01-24T08:36:28.427Z,7.45
2024-01-24T08:38:59.647Z,5.70
2024-01-24T08:41:30.301Z,6.20
2024-01-24T08:44:03.894Z,7.32
2024-01-24T08:46:34.413Z,7.32
2024-01-24T08:49:05.062Z,9.52
2024-01-24T08:51:36.077Z,7.88
2024-01-24T08:54:06.658Z,8.48
2024-01-24T08:56:37.242Z,4.75
2024-01-24T08:59:10.352Z,7.13
2024-01-24T09:01:41.215Z,7.00
2024-01-24T09:04:13.659Z,5.82
2024-01-24T09:06:45.853Z,7.07
2024-01-24T09:09:17.510Z,19.58
2024-01-24T09:11:55.670Z,8.40
2024-01-24T09:14:30.816Z,6.85
2024-01-24T09:17:01.697Z,7.25
2024-01-24T09:19:32.561Z,9.57
2024-01-24T09:22:03.726Z,6.40
2024-01-24T09:24:34.606Z,6.10
2024-01-24T09:27:05.322Z,4.75
2024-01-24T09:29:38.463Z,8.90
2024-01-24T09:32:09.217Z,5.40
2024-01-24T09:34:39.935Z,4.22
2024-01-24T09:37:10.733Z,7.75
2024-01-24T09:39:41.382Z,5.25
2024-01-24T09:42:14.139Z,6.20
2024-01-24T09:44:49.883Z,8.07
2024-01-24T09:47:21.070Z,4.53
2024-01-24T09:49:52.157Z,8.25
2024-01-24T09:52:26.435Z,7.88
2024-01-24T09:54:58.802Z,7.70
2024-01-24T09:57:29.862Z,11.48
2024-01-24T10:00:03.567Z,8.77
2024-01-24T10:02:35.375Z,5.72
2024-01-24T10:05:07.624Z,7.32
2024-01-24T10:07:38.290Z,5.13
2024-01-24T10:10:11.220Z,4.47
2024-01-24T10:12:43.229Z,8.18
2024-01-24T10:15:16.578Z,6.47
2024-01-24T10:17:48.027Z,6.07
2024-01-24T10:20:18.673Z,6.72
2024-01-24T10:22:50.316Z,7.57
2024-01-24T10:25:21.514Z,7.40
2024-01-24T10:27:52.284Z,6.97
2024-01-24T10:30:26.082Z,7.28
2024-01-24T10:32:56.928Z,6.75
2024-01-24T10:35:27.682Z,13.43
2024-01-24T10:37:58.379Z,5.80
2024-01-24T10:40:30.102Z,7.78
2024-01-24T10:43:04.447Z,6.15
2024-01-24T10:45:39.454Z,9.18
2024-01-24T10:48:12.661Z,10.23
2024-01-24T10:50:44.130Z,5.85
2024-01-24T10:53:16.807Z,7.28
2024-01-24T10:55:47.336Z,6.30
2024-01-24T10:58:18.308Z,6.35
2024-01-24T11:00:51.482Z,4.97
2024-01-24T11:03:22.741Z,7.10
2024-01-24T11:05:55.758Z,6.53
2024-01-24T11:08:39.509Z,6.28
2024-01-24T11:11:15.604Z,7.30
2024-01-24T11:13:46.222Z,4.97
2024-01-24T11:16:31.537Z,7.57
2024-01-24T11:19:23.680Z,5.72
2024-01-24T11:21:54.953Z,8.15
2024-01-24T11:24:40.747Z,8.02
2024-01-24T11:27:28.610Z,5.10
2024-01-24T11:30:02.124Z,7.60
2024-01-24T11:32:48.722Z,4.95
2024-01-24T11:35:32.814Z,9.65
2024-01-24T11:38:12.923Z,6.50
2024-01-24T11:40:52.161Z,6.95
2024-01-24T11:43:27.494Z,8.40
2024-01-24T11:45:58.483Z,5.25
2024-01-24T11:48:30.128Z,5.65
2024-01-24T11:51:04.244Z,6.38
2024-01-24T11:53:34.870Z,10.63
2024-01-24T11:56:06.216Z,6.25
2024-01-24T11:58:36.905Z,7.50
2024-01-24T12:01:09.262Z,4.95
2024-01-24T12:03:39.966Z,5.53
2024-01-24T12:06:13.478Z,3.63
2024-01-24T12:08:45.246Z,5.65
2024-01-24T12:11:16.242Z,4.80
2024-01-24T12:13:47.121Z,5.28
2024-01-24T12:16:17.747Z,7.05
2024-01-24T12:18:48.566Z,7.38
2024-01-24T12:21:22.421Z,5.68
2024-01-24T12:23:55.578Z,5.28
2024-01-24T12:26:26.558Z,3.90
2024-01-24T12:28:57.250Z,6.47
2024-01-24T12:31:30.853Z,5.80
2024-01-24T12:34:02.240Z,6.50
2024-01-24T12:36:35.568Z,5.75
2024-01-24T12:39:08.609Z,4.57
2024-01-24T12:41:40.399Z,5.22
2024-01-24T12:44:13.893Z,3.30
2024-01-24T12:46:44.451Z,8.35
2024-01-24T12:49:15.182Z,3.92
2024-01-24T12:51:48.670Z,5.32
2024-01-24T12:54:20.742Z,4.32
2024-01-24T12:56:52.337Z,5.63
2024-01-24T12:59:23.069Z,5.18
2024-01-24T13:01:57.483Z,6.07
2024-01-24T13:04:28.420Z,4.95
2024-01-24T13:07:01.869Z,4.07
2024-01-24T13:09:37.019Z,6.20
2024-01-24T13:12:11.368Z,7.30
2024-01-24T13:14:42.222Z,3.72
2024-01-24T13:17:12.710Z,4.32
2024-01-24T13:19:43.336Z,5.00
2024-01-24T13:22:16.869Z,5.00
2024-01-24T13:24:48.187Z,6.68
2024-01-24T13:27:22.380Z,6.25
2024-01-24T13:29:53.278Z,5.45
2024-01-24T13:32:23.942Z,4.32
2024-01-24T13:34:54.618Z,4.38
2024-01-24T13:37:28.154Z,6.00
2024-01-24T13:40:00.002Z,8.18
2024-01-24T13:42:30.956Z,6.22
2024-01-24T13:45:01.637Z,6.35
2024-01-24T13:47:32.480Z,5.75
2024-01-24T13:50:03.256Z,4.40
2024-01-24T13:52:37.065Z,3.88
2024-01-24T13:55:09.799Z,5.38
2024-01-24T13:57:43.761Z,11.23
2024-01-24T14:00:16.984Z,7.43
2024-01-24T14:02:47.798Z,4.60
2024-01-24T14:05:18.869Z,4.82
2024-01-24T14:07:52.628Z,7.55
2024-01-24T14:10:23.272Z,7.72
2024-01-24T14:12:53.909Z,4.82
2024-01-24T14:15:33.174Z,7.22
2024-01-24T14:18:06.742Z,4.78
2024-01-24T14:20:37.293Z,6.93
2024-01-24T14:23:10.593Z,8.60
2024-01-24T14:25:41.247Z,6.40
2024-01-24T14:28:12.058Z,9.95
2024-01-24T14:30:42.662Z,8.02
2024-01-24T14:33:18.034Z,5.32
2024-01-24T14:35:54.864Z,12.95
2024-01-24T14:38:28.100Z,6.55
2024-01-24T14:40:58.625Z,5.30
2024-01-24T14:43:29.135Z,9.63
2024-01-24T14:45:59.681Z,6.88
2024-01-24T14:48:30.363Z,7.70
2024-01-24T14:51:01.129Z,8.60
2024-01-24T14:53:34.658Z,8.18
2024-01-24T14:56:05.145Z,7.50
2024-01-24T14:58:35.734Z,6.50
2024-01-24T15:01:06.320Z,11.27
2024-01-24T15:03:37.510Z,8.90
2024-01-24T15:06:08.560Z,10.48
2024-01-24T15:08:41.639Z,8.82
2024-01-24T15:11:12.132Z,8.13
2024-01-24T15:13:42.770Z,6.30
2024-01-24T15:16:15.657Z,5.20
2024-01-24T15:18:46.314Z,5.97
2024-01-24T15:21:17.016Z,9.63
2024-01-24T15:23:50.745Z,7.82
2024-01-24T15:26:22.468Z,4.38
2024-01-24T15:28:53.420Z,6.75
2024-01-24T15:31:24.137Z,8.15
2024-01-24T15:33:54.934Z,7.82
2024-01-24T15:36:25.923Z,7.82
2024-01-24T15:38:59.166Z,6.32
2024-01-24T15:41:30.467Z,5.40
2024-01-24T15:44:01.667Z,8.30
2024-01-24T15:46:32.553Z,5.88
2024-01-24T15:49:04.584Z,7.05
2024-01-24T15:51:35.490Z,7.00
2024-01-24T15:54:09.287Z,6.45
2024-01-24T15:56:39.919Z,5.38
2024-01-24T15:59:11.063Z,4.55
2024-01-24T16:01:42.867Z,8.20
2024-01-24T16:04:13.633Z,7.47
2024-01-24T16:06:44.407Z,7.70
2024-01-24T16:09:18.440Z,5.57
2024-01-24T16:11:49.035Z,9.48
2024-01-24T16:14:20.064Z,7.07
2024-01-24T16:16:52.254Z,8.63
2024-01-24T16:19:22.896Z,5.82
2024-01-24T16:21:54.764Z,7.40
2024-01-24T16:24:28.064Z,5.40
2024-01-24T16:26:58.987Z,6.78
2024-01-24T16:29:29.556Z,8.50
2024-01-24T16:32:00.316Z,8.40
2024-01-24T16:34:30.900Z,7.25
2024-01-24T16:37:01.903Z,5.63
2024-01-24T16:39:35.319Z,7.60
2024-01-24T16:42:07.305Z,8.05
2024-01-24T16:44:37.936Z,9.43
2024-01-24T16:47:10.325Z,13.68
2024-01-24T16:49:41.637Z,12.73
2024-01-24T16:52:12.400Z,16.95
2024-01-24T16:54:45.605Z,15.88
2024-01-24T16:57:16.517Z,17.88
2024-01-24T16:59:48.679Z,17.80
2024-01-24T17:02:19.185Z,18.70
2024-01-24T17:04:50.015Z,16.40
2024-01-24T17:07:23.337Z,18.67
2024-01-24T17:09:56.611Z,16.85
2024-01-24T17:12:29.239Z,18.33
2024-01-24T17:15:00.530Z,23.42
2024-01-24T17:17:32.479Z,19.80
2024-01-24T17:20:03.249Z,22.80
2024-01-24T17:22:33.786Z,17.10
2024-01-24T17:25:08.929Z,16.40
2024-01-24T17:27:39.983Z,18.25
2024-01-24T17:30:11.719Z,17.70
2024-01-24T17:32:43.072Z,19.20
2024-01-24T17:35:13.709Z,17.27
2024-01-24T17:37:44.315Z,15.38
2024-01-24T17:40:18.088Z,17.73
2024-01-24T17:42:48.776Z,12.90
2024-01-24T17:45:19.783Z,19.33
2024-01-24T17:47:50.470Z,13.05
2024-01-24T17:50:21.141Z,18.35
2024-01-24T17:52:51.852Z,16.55
2024-01-24T17:55:29.346Z,21.27
2024-01-24T17:58:00.372Z,15.70
2024-01-24T18:00:31.059Z,19.65
2024-01-24T18:03:02.331Z,19.48
2024-01-24T18:05:32.934Z,17.10
2024-01-24T18:08:03.862Z,11.27
2024-01-24T18:10:37.709Z,21.20
2024-01-24T18:13:08.531Z,19.17
2024-01-24T18:15:39.237Z,19.02
2024-01-24T18:18:11.513Z,13.57
2024-01-24T18:20:42.136Z,19.05
2024-01-24T18:23:12.696Z,16.20
2024-01-24T18:25:46.096Z,15.45
2024-01-24T18:28:17.038Z,11.35
2024-01-24T18:30:47.681Z,17.60
2024-01-24T18:33:18.283Z,11.82
2024-01-24T18:35:48.941Z,11.95
2024-01-24T18:38:19.563Z,14.13
2024-01-24T18:40:52.869Z,11.30
2024-01-24T18:43:23.899Z,9.73
2024-01-24T18:45:54.732Z,15.57
2024-01-24T18:48:25.510Z,15.25
2024-01-24T18:50:56.319Z,13.60
2024-01-24T18:53:26.844Z,12.07
2024-01-24T18:56:00.784Z,13.82
2024-01-24T18:58:31.291Z,17.77
2024-01-24T19:01:02.170Z,12.10
2024-01-24T19:03:33.004Z,13.70
2024-01-24T19:06:04.103Z,14.57
2024-01-24T19:08:37.644Z,13.77
2024-01-24T19:11:11.227Z,10.85
2024-01-24T19:13:42.366Z,11.15
2024-01-24T19:16:13.064Z,14.73
2024-01-24T19:18:47.332Z,10.40
2024-01-24T19:21:18.076Z,10.52
2024-01-24T19:23:48.760Z,14.80
2024-01-24T19:26:22.859Z,13.63
2024-01-24T19:28:53.899Z,14.38
2024-01-24T19:31:24.693Z,13.57
2024-01-24T19:33:55.403Z,10.32
2024-01-24T19:36:26.128Z,12.82
2024-01-24T19:38:58.591Z,16.63
2024-01-24T19:41:32.402Z,11.65
2024-01-24T19:44:03.619Z,14.75
2024-01-24T19:46:34.145Z,11.75
2024-01-24T19:49:04.840Z,14.13
2024-01-24T19:51:35.473Z,10.90
2024-01-24T19:54:06.138Z,13.88
2024-01-24T19:56:40.417Z,14.30
2024-01-24T19:59:11.086Z,11.43
2024-01-24T20:01:42.110Z,12.02
2024-01-24T20:04:12.955Z,10.27
2024-01-24T20:06:43.788Z,11.30
2024-01-24T20:09:14.832Z,13.93
2024-01-24T20:11:48.954Z,12.85
2024-01-24T20:14:19.726Z,11.32
2024-01-24T20:16:50.616Z,7.95
2024-01-24T20:19:22.207Z,13.35
2024-01-24T20:21:55.612Z,8.70
2024-01-24T20:24:26.279Z,14.70
2024-01-24T20:27:00.343Z,10.52
2024-01-24T20:29:31.540Z,13.75
2024-01-24T20:32:04.477Z,10.77
2024-01-24T20:34:36.259Z,11.00
2024-01-24T20:37:08.786Z,10.35
2024-01-24T20:39:40.918Z,10.85
2024-01-24T20:42:17.574Z,10.73
2024-01-24T20:44:55.158Z,10.00
2024-01-24T20:47:26.615Z,10.35
2024-01-24T20:49:57.365Z,13.68
2024-01-24T20:52:28.231Z,9.38
2024-01-24T20:54:58.886Z,10.82
2024-01-24T20:57:34.137Z,10.05
2024-01-24T21:00:06.881Z,9.35
2024-01-24T21:02:37.637Z,9.00
2024-01-24T21:05:09.350Z,9.13
2024-01-24T21:07:40.779Z,10.75
2024-01-24T21:10:13.529Z,9.38
2024-01-24T21:12:46.919Z,11.63
2024-01-24T21:15:17.530Z,9.43
2024-01-24T21:17:49.308Z,7.90
2024-01-24T21:20:20.193Z,11.23
2024-01-24T21:22:51.738Z,7.82
2024-01-24T21:25:22.434Z,8.48
2024-01-24T21:27:55.776Z,9.52
2024-01-24T21:30:26.434Z,8.10
2024-01-24T21:32:57.162Z,9.20
2024-01-24T21:35:27.817Z,7.03
2024-01-24T21:37:58.332Z,7.78
2024-01-24T21:40:29.700Z,8.10
2024-01-24T21:43:02.994Z,7.63
2024-01-24T21:45:33.638Z,8.35
2024-01-24T21:48:04.240Z,9.00
2024-01-24T21:50:34.905Z,10.90
2024-01-24T21:53:05.579Z,8.05
2024-01-24T21:55:36.110Z,7.50
2024-01-24T21:58:09.286Z,7.43
2024-01-24T22:00:40.085Z,9.82
2024-01-24T22:03:10.602Z,8.52
2024-01-24T22:05:41.202Z,10.40
2024-01-24T22:08:11.908Z,8.25
2024-01-24T22:10:42.629Z,6.30
2024-01-24T22:13:15.790Z,8.48
2024-01-24T22:15:46.459Z,10.25
2024-01-24T22:18:16.917Z,8.75
2024-01-24T22:20:47.414Z,7.45
2024-01-24T22:23:18.152Z,6.45
2024-01-24T22:25:48.888Z,7.72
2024-01-24T22:28:21.993Z,9.90
2024-01-24T22:30:53.920Z,8.80
2024-01-24T22:33:24.671Z,9.32
2024-01-24T22:35:55.219Z,8.95
2024-01-24T22:38:25.897Z,6.88
2024-01-24T22:40:56.672Z,8.80
2024-01-24T22:43:29.842Z,6.13
2024-01-24T22:46:00.542Z,9.77
2024-01-24T22:48:31.197Z,8.60
2024-01-24T22:51:01.793Z,6.47
2024-01-24T22:53:32.376Z,6.22
2024-01-24T22:56:02.942Z,6.65
2024-01-24T22:58:36.059Z,9.23
2024-01-24T23:01:06.690Z,8.43
2024-01-24T23:03:37.248Z,6.40
2024-01-24T23:06:08.161Z,8.52
2024-01-24T23:08:38.991Z,7.75
2024-01-24T23:11:09.529Z,7.13
2024-01-24T23:13:42.803Z,8.98
2024-01-24T23:16:13.476Z,7.45
2024-01-24T23:18:44.267Z,8.30
2024-01-24T23:21:14.814Z,5.68
2024-01-24T23:23:45.758Z,3.85
2024-01-24T23:26:16.270Z,5.28
2024-01-24T23:28:49.609Z,5.38
2024-01-24T23:31:20.817Z,4.35
2024-01-24T23:33:51.484Z,5.95
2024-01-24T23:36:22.193Z,4.90
2024-01-24T23:38:53.831Z,6.07
2024-01-24T23:41:24.816Z,4.30
2024-01-24T23:43:58.109Z,7.88
2024-01-24T23:46:34.481Z,6.55
2024-01-24T23:49:05.369Z,6.95
2024-01-24T23:51:36.709Z,6.43
2024-01-24T23:54:10.242Z,5.57
2024-01-24T23:56:40.794Z,5.60
2024-01-24T23:59:14.285Z,5.97
